createdAt,value
2022-11-02T00:00:42.089Z,9.93
2022-11-02T00:02:45.004Z,9.92
2022-11-02T00:04:47.740Z,9.93
2022-11-02T00:06:50.453Z,6.97
2022-11-02T00:08:53.184Z,9.82
2022-11-02T00:10:55.875Z,9.72
2022-11-02T00:12:58.980Z,9.67
2022-11-02T00:15:03.020Z,9.71
2022-11-02T00:17:05.691Z,9.71
2022-11-02T00:19:10.122Z,9.64
2022-11-02T00:21:13.870Z,9.63
2022-11-02T00:23:17.152Z,9.65
2022-11-02T00:25:22.885Z,9.65
2022-11-02T00:27:25.721Z,9.62
2022-11-02T00:29:33.447Z,7.80
2022-11-02T00:31:37.959Z,9.51
2022-11-02T00:33:40.790Z,9.42
2022-11-02T00:35:45.796Z,9.48
2022-11-02T00:37:48.461Z,8.75
2022-11-02T00:39:52.889Z,9.47
2022-11-02T00:41:55.587Z,9.50
2022-11-02T00:43:58.425Z,9.46
2022-11-02T00:46:01.376Z,9.48
2022-11-02T00:48:08.262Z,9.43
2022-11-02T00:50:11.246Z,9.25
2022-11-02T00:52:15.908Z,9.22
2022-11-02T00:54:26.027Z,9.26
2022-11-02T00:56:31.608Z,9.28
2022-11-02T00:58:34.429Z,9.33
2022-11-02T01:00:37.664Z,8.61
2022-11-02T01:02:40.547Z,9.26
2022-11-02T01:04:44.734Z,9.30
2022-11-02T01:06:47.924Z,9.17
2022-11-02T01:08:51.141Z,8.43
2022-11-02T01:10:53.886Z,7.71
2022-11-02T01:12:56.561Z,7.29
2022-11-02T01:15:00.454Z,9.34
2022-11-02T01:17:03.166Z,9.40
2022-11-02T01:19:05.848Z,9.41
2022-11-02T01:21:10.015Z,9.42
2022-11-02T01:23:12.761Z,9.42
2022-11-02T01:25:15.548Z,9.47
2022-11-02T01:27:18.342Z,9.48
2022-11-02T01:29:21.197Z,9.54
2022-11-02T01:31:23.938Z,9.57
2022-11-02T01:33:26.826Z,9.58
2022-11-02T01:35:30.319Z,7.03
2022-11-02T01:37:35.132Z,9.63
2022-11-02T01:39:37.856Z,9.62
2022-11-02T01:41:40.855Z,9.62
2022-11-02T01:43:45.291Z,7.18
2022-11-02T01:45:48.559Z,9.58
2022-11-02T01:47:51.363Z,8.33
2022-11-02T01:49:58.464Z,9.51
2022-11-02T01:52:07.366Z,9.48
2022-11-02T01:54:15.425Z,9.40
2022-11-02T01:58:29.409Z,9.20
2022-11-02T02:00:32.336Z,7.59
2022-11-02T02:02:39.561Z,9.33
2022-11-02T02:04:43.564Z,9.35
2022-11-02T02:06:46.567Z,9.43
2022-11-02T02:08:51.790Z,8.47
2022-11-02T02:10:58.645Z,9.09
2022-11-02T02:13:02.035Z,9.42
2022-11-02T02:15:05.344Z,9.45
2022-11-02T02:17:27.029Z,9.38
2022-11-02T02:19:44.064Z,9.31
2022-11-02T02:22:13.885Z,9.35
2022-11-02T02:24:32.846Z,9.12
2022-11-02T02:27:03.424Z,9.25
2022-11-02T02:29:12.307Z,5.95
2022-11-02T02:31:21.338Z,9.23
2022-11-02T02:33:30.630Z,8.83
2022-11-02T02:35:41.124Z,8.82
2022-11-02T02:37:53.714Z,8.86
2022-11-02T02:40:02.469Z,3.99
2022-11-02T02:42:18.810Z,8.06
2022-11-02T02:44:26.995Z,8.89
2022-11-02T02:46:37.147Z,8.88
2022-11-02T02:48:42.511Z,8.94
2022-11-02T02:50:49.269Z,9.02
2022-11-02T02:52:54.677Z,9.01
2022-11-02T02:55:00.879Z,9.00
2022-11-02T02:57:09.616Z,9.01
2022-11-02T02:59:19.683Z,9.03
2022-11-02T03:01:26.154Z,7.53
2022-11-02T03:03:30.927Z,8.98
2022-11-02T03:05:35.894Z,8.99
2022-11-02T03:07:42.198Z,8.91
2022-11-02T03:09:50.280Z,8.78
2022-11-02T03:12:04.121Z,8.74
2022-11-02T03:14:20.387Z,8.85
2022-11-02T03:16:38.489Z,8.86
2022-11-02T03:18:49.320Z,8.97
2022-11-02T03:21:01.784Z,9.06
2022-11-02T03:23:13.913Z,7.08
2022-11-02T03:25:23.318Z,9.13
2022-11-02T03:27:35.076Z,9.20
2022-11-02T03:29:47.289Z,9.27
2022-11-02T03:31:58.105Z,3.78
2022-11-02T03:34:08.298Z,9.40
2022-11-02T03:36:15.743Z,9.40
2022-11-02T03:38:23.537Z,9.26
2022-11-02T03:40:31.249Z,5.42
2022-11-02T03:42:38.626Z,9.31
2022-11-02T03:44:42.527Z,9.32
2022-11-02T03:46:48.257Z,9.33
2022-11-02T03:48:56.054Z,9.23
2022-11-02T03:51:02.668Z,9.31
2022-11-02T03:53:11.248Z,9.35
2022-11-02T03:55:20.483Z,9.36
2022-11-02T03:57:29.974Z,9.35
2022-11-02T03:59:33.628Z,9.39
2022-11-02T04:01:40.032Z,9.41
2022-11-02T04:03:46.077Z,6.44
2022-11-02T04:05:50.251Z,8.72
2022-11-02T04:08:16.457Z,7.06
2022-11-02T04:10:19.628Z,8.88
2022-11-02T04:12:39.956Z,9.48
2022-11-02T04:14:42.748Z,6.52
2022-11-02T04:17:12.550Z,9.35
2022-11-02T04:19:29.026Z,9.21
2022-11-02T04:22:03.975Z,9.16
2022-11-02T04:24:27.096Z,9.30
2022-11-02T04:26:29.855Z,9.37
2022-11-02T04:28:32.633Z,9.30
2022-11-02T04:30:37.099Z,9.21
2022-11-02T04:32:58.670Z,9.26
2022-11-02T04:35:04.603Z,9.21
2022-11-02T04:37:23.294Z,9.18
2022-11-02T04:39:26.128Z,7.40
2022-11-02T04:41:44.213Z,9.12
2022-11-02T04:43:55.261Z,8.48
2022-11-02T04:45:59.279Z,5.94
2022-11-02T04:48:02.858Z,9.06
2022-11-02T04:50:06.524Z,9.15
2022-11-02T04:52:11.085Z,9.27
2022-11-02T04:54:19.392Z,9.37
2022-11-02T04:56:27.595Z,9.34
2022-11-02T04:58:30.864Z,7.96
2022-11-02T05:00:33.594Z,9.35
2022-11-02T05:02:36.631Z,9.34
2022-11-02T05:04:39.688Z,9.33
2022-11-02T05:06:42.559Z,9.35
2022-11-02T05:08:47.107Z,9.34
2022-11-02T05:10:49.984Z,9.30
2022-11-02T05:12:58.472Z,5.71
2022-11-02T05:15:04.792Z,7.04
2022-11-02T05:17:07.753Z,9.16
2022-11-02T05:19:11.955Z,8.73
2022-11-02T05:21:15.882Z,9.14
2022-11-02T05:23:19.151Z,4.12
2022-11-02T05:25:23.696Z,9.17
2022-11-02T05:27:27.917Z,9.18
2022-11-02T05:29:30.874Z,7.90
2022-11-02T05:31:33.594Z,9.22
2022-11-02T05:33:36.741Z,4.05
2022-11-02T05:35:46.923Z,9.17
2022-11-02T05:37:49.656Z,9.15
2022-11-02T05:39:53.696Z,9.14
2022-11-02T05:41:57.891Z,6.90
2022-11-02T05:44:01.367Z,9.11
2022-11-02T05:46:05.430Z,7.95
2022-11-02T05:48:08.220Z,8.98
2022-11-02T05:50:11.106Z,8.93
2022-11-02T05:52:13.906Z,8.94
2022-11-02T05:54:16.726Z,8.91
2022-11-02T05:56:24.572Z,8.91
2022-11-02T05:58:32.180Z,8.91
2022-11-02T06:00:34.910Z,8.91
2022-11-02T06:02:37.613Z,8.87
2022-11-02T06:04:40.328Z,7.18
2022-11-02T06:06:43.026Z,8.94
2022-11-02T06:08:45.688Z,8.97
2022-11-02T06:10:48.768Z,8.33
2022-11-02T06:12:55.612Z,8.93
2022-11-02T06:15:00.082Z,8.98
2022-11-02T06:17:02.815Z,8.94
2022-11-02T06:19:05.568Z,8.88
2022-11-02T06:21:08.311Z,8.92
2022-11-02T06:23:14.129Z,8.91
2022-11-02T06:25:17.504Z,8.94
2022-11-02T06:27:20.248Z,8.91
2022-11-02T06:29:23.667Z,8.95
2022-11-02T06:31:27.711Z,8.98
2022-11-02T06:33:30.374Z,8.78
2022-11-02T06:35:33.562Z,8.89
2022-11-02T06:37:36.341Z,9.02
2022-11-02T06:39:39.095Z,9.08
2022-11-02T06:41:41.777Z,9.13
2022-11-02T06:43:44.451Z,9.25
2022-11-02T06:45:47.545Z,9.33
2022-11-02T06:47:51.733Z,9.41
2022-11-02T06:49:54.551Z,9.54
2022-11-02T06:51:57.223Z,9.59
2022-11-02T06:54:03.267Z,9.62
2022-11-02T06:56:08.856Z,9.68
2022-11-02T06:58:11.902Z,8.97
2022-11-02T07:00:20.880Z,9.72
2022-11-02T07:02:26.451Z,9.81
2022-11-02T07:04:30.472Z,9.00
2022-11-02T07:06:33.130Z,9.91
2022-11-02T07:08:35.799Z,9.93
2022-11-02T07:10:38.471Z,9.98
2022-11-02T07:12:41.117Z,10.04
2022-11-02T07:14:43.773Z,10.07
2022-11-02T07:16:46.687Z,10.13
2022-11-02T07:18:49.370Z,10.15
2022-11-02T07:20:53.384Z,10.15
2022-11-02T07:22:57.540Z,10.17
2022-11-02T07:25:00.194Z,10.17
2022-11-02T07:27:02.908Z,10.20
2022-11-02T07:29:05.601Z,10.26
2022-11-02T07:31:08.339Z,10.17
2022-11-02T07:33:12.279Z,10.32
2022-11-02T07:35:17.366Z,10.46
2022-11-02T07:37:21.438Z,10.55
2022-11-02T07:39:24.392Z,10.57
2022-11-02T07:41:27.058Z,10.60
2022-11-02T07:43:29.824Z,10.63
2022-11-02T07:45:51.398Z,10.75
2022-11-02T07:47:54.304Z,8.28
2022-11-02T07:49:59.040Z,10.88
2022-11-02T07:52:01.705Z,11.03
2022-11-02T07:54:05.992Z,11.12
2022-11-02T07:56:09.115Z,11.21
2022-11-02T07:58:14.007Z,11.36
2022-11-02T08:00:17.259Z,11.49
2022-11-02T08:02:19.927Z,9.84
2022-11-02T08:06:32.073Z,11.88
2022-11-02T08:08:34.750Z,12.03
2022-11-02T08:10:40.456Z,12.19
2022-11-02T08:12:43.946Z,12.29
2022-11-02T08:14:46.643Z,8.74
2022-11-02T08:16:52.523Z,12.45
2022-11-02T08:18:55.175Z,12.37
2022-11-02T08:20:58.983Z,9.17
2022-11-02T08:23:02.023Z,12.53
2022-11-02T08:25:05.323Z,12.63
2022-11-02T08:27:09.415Z,12.69
2022-11-02T08:29:12.203Z,12.78
2022-11-02T08:31:17.596Z,12.75
2022-11-02T08:33:21.241Z,12.10
2022-11-02T08:35:23.995Z,12.35
2022-11-02T08:37:26.689Z,12.37
2022-11-02T08:39:29.954Z,12.54
2022-11-02T08:41:32.618Z,12.63
2022-11-02T08:43:36.639Z,12.37
2022-11-02T08:48:04.074Z,12.50
2022-11-02T08:50:07.320Z,12.77
2022-11-02T08:52:09.968Z,12.86
2022-11-02T08:54:12.751Z,12.94
2022-11-02T08:56:15.428Z,13.10
2022-11-02T08:58:18.811Z,12.95
2022-11-02T09:00:25.273Z,13.19
2022-11-02T09:02:28.028Z,13.29
2022-11-02T09:04:30.763Z,13.44
2022-11-02T09:06:33.491Z,13.80
2022-11-02T09:08:36.199Z,13.52
2022-11-02T09:10:39.146Z,13.30
2022-11-02T09:12:41.788Z,13.55
2022-11-02T09:14:44.420Z,13.28
2022-11-02T09:16:48.429Z,13.26
2022-11-02T09:18:51.169Z,13.29
2022-11-02T09:20:53.851Z,13.14
2022-11-02T09:22:56.580Z,13.39
2022-11-02T09:24:59.294Z,13.56
2022-11-02T09:27:02.026Z,13.64
2022-11-02T09:29:04.727Z,13.29
2022-11-02T09:31:10.648Z,8.02
2022-11-02T09:33:15.981Z,13.00
2022-11-02T09:35:18.877Z,13.27
2022-11-02T09:37:21.769Z,13.43
2022-11-02T09:39:24.898Z,13.17
2022-11-02T09:41:35.587Z,13.37
2022-11-02T09:43:46.491Z,12.35
2022-11-02T09:45:56.277Z,13.09
2022-11-02T09:48:27.818Z,13.21
2022-11-02T09:50:42.862Z,13.49
2022-11-02T09:52:49.781Z,13.54
2022-11-02T09:54:57.122Z,12.16
2022-11-02T09:57:05.447Z,13.80
2022-11-02T09:59:14.533Z,13.94
2022-11-02T10:01:38.454Z,13.63
2022-11-02T10:03:55.258Z,13.37
2022-11-02T10:06:05.589Z,13.32
2022-11-02T10:08:28.755Z,13.30
2022-11-02T10:10:37.857Z,13.50
2022-11-02T10:12:50.465Z,13.15
2022-11-02T10:15:00.848Z,13.60
2022-11-02T10:17:11.642Z,13.13
2022-11-02T10:19:18.016Z,12.60
2022-11-02T10:21:26.392Z,13.92
2022-11-02T10:23:33.293Z,13.82
2022-11-02T10:25:37.193Z,13.72
2022-11-02T10:27:40.785Z,11.55
2022-11-02T10:29:49.706Z,13.50
2022-11-02T10:31:52.444Z,13.72
2022-11-02T10:33:58.339Z,13.73
2022-11-02T10:36:19.446Z,10.15
2022-11-02T10:38:36.281Z,12.92
2022-11-02T10:40:56.905Z,12.64
2022-11-02T10:43:13.623Z,14.44
2022-11-02T10:45:47.874Z,14.34
2022-11-02T10:48:04.041Z,14.30
2022-11-02T10:50:26.350Z,14.50
2022-11-02T10:52:34.498Z,14.46
2022-11-02T10:54:38.741Z,13.62
2022-11-02T10:56:43.261Z,13.83
2022-11-02T10:58:53.594Z,13.95
2022-11-02T11:01:06.569Z,14.35
2022-11-02T11:03:11.787Z,14.33
2022-11-02T11:05:14.725Z,14.46
2022-11-02T11:07:21.421Z,14.53
2022-11-02T11:09:26.693Z,12.10
2022-11-02T11:11:34.021Z,14.95
2022-11-02T11:15:59.920Z,15.04
2022-11-02T11:20:39.321Z,15.00
2022-11-02T11:22:42.310Z,14.78
2022-11-02T11:24:45.062Z,13.86
2022-11-02T11:27:05.207Z,13.82
2022-11-02T11:29:23.255Z,12.36
2022-11-02T11:31:26.843Z,14.26
2022-11-02T11:33:31.270Z,14.49
2022-11-02T11:35:35.816Z,13.99
2022-11-02T11:37:49.296Z,14.63
2022-11-02T11:39:54.996Z,15.28
2022-11-02T11:42:00.186Z,15.39
2022-11-02T11:44:04.241Z,15.88
2022-11-02T11:46:09.381Z,16.22
2022-11-02T11:48:28.700Z,16.67
2022-11-02T11:50:31.664Z,16.99
2022-11-02T11:52:35.893Z,17.02
2022-11-02T11:54:39.378Z,16.62
2022-11-02T11:56:42.184Z,17.00
2022-11-02T11:58:52.189Z,17.27
2022-11-02T12:01:09.202Z,16.78
2022-11-02T12:03:16.408Z,17.20
2022-11-02T12:05:20.889Z,17.50
2022-11-02T12:07:56.018Z,17.57
2022-11-02T12:10:08.870Z,18.25
2022-11-02T12:12:19.380Z,18.84
2022-11-02T12:14:42.132Z,19.04
2022-11-02T12:17:02.027Z,18.25
2022-11-02T12:19:20.516Z,19.48
2022-11-02T12:21:39.381Z,18.71
2022-11-02T12:24:05.636Z,17.77
2022-11-02T12:26:21.562Z,19.84
2022-11-02T12:28:41.907Z,19.86
2022-11-02T12:30:55.796Z,19.92
2022-11-02T12:33:07.510Z,20.18
2022-11-02T12:35:40.190Z,20.60
2022-11-02T12:37:58.065Z,18.82
2022-11-02T12:40:19.043Z,20.59
2022-11-02T12:42:28.528Z,20.16
2022-11-02T12:44:49.899Z,18.80
2022-11-02T12:47:00.742Z,20.33
2022-11-02T12:49:20.604Z,19.18
2022-11-02T12:51:28.054Z,21.21
2022-11-02T12:53:44.706Z,21.38
2022-11-02T12:55:51.822Z,21.50
2022-11-02T12:58:01.137Z,20.08
2022-11-02T13:00:07.302Z,19.08
2022-11-02T13:02:16.019Z,19.09
2022-11-02T13:04:26.241Z,19.93
2022-11-02T13:06:36.147Z,18.93
2022-11-02T13:08:46.816Z,16.78
2022-11-02T13:10:54.142Z,18.91
2022-11-02T13:13:00.912Z,19.14
2022-11-02T13:15:09.340Z,19.17
2022-11-02T13:17:22.400Z,19.96
2022-11-02T13:19:34.709Z,19.97
2022-11-02T13:21:44.161Z,19.08
2022-11-02T13:23:51.431Z,19.39
2022-11-02T13:25:59.244Z,18.39
2022-11-02T13:28:06.296Z,18.78
2022-11-02T13:30:15.730Z,17.78
2022-11-02T13:32:33.369Z,18.51
2022-11-02T13:34:41.048Z,18.92
2022-11-02T13:36:44.964Z,17.44
2022-11-02T13:38:52.172Z,18.54
2022-11-02T13:41:07.069Z,18.49
2022-11-02T13:43:39.563Z,15.56
2022-11-02T13:46:12.222Z,18.36
2022-11-02T13:48:39.315Z,18.62
2022-11-02T13:50:45.661Z,19.21
2022-11-02T13:52:53.437Z,20.32
2022-11-02T13:55:01.678Z,21.18
2022-11-02T13:57:04.681Z,20.16
2022-11-02T13:59:10.103Z,20.16
2022-11-02T14:01:18.719Z,19.53
2022-11-02T14:03:26.149Z,13.61
2022-11-02T14:05:33.059Z,17.94
2022-11-02T14:07:40.998Z,19.83
2022-11-02T14:09:45.594Z,19.08
2022-11-02T14:11:49.775Z,19.28
2022-11-02T14:14:16.935Z,20.60
2022-11-02T14:16:49.549Z,21.40
2022-11-02T14:19:29.765Z,21.72
2022-11-02T14:21:44.871Z,22.33
2022-11-02T14:23:47.619Z,22.85
2022-11-02T14:25:53.494Z,23.27
2022-11-02T14:27:56.532Z,23.35
2022-11-02T14:29:59.724Z,22.65
2022-11-02T14:32:06.124Z,21.22
2022-11-02T14:34:37.630Z,21.63
2022-11-02T14:36:56.107Z,22.32
2022-11-02T14:39:06.492Z,21.94
2022-11-02T14:41:26.878Z,22.71
2022-11-02T14:44:00.748Z,22.50
2022-11-02T14:46:09.684Z,22.84
2022-11-02T14:48:17.034Z,21.45
2022-11-02T14:50:22.194Z,22.70
2022-11-02T14:52:28.887Z,22.74
2022-11-02T14:54:34.681Z,22.49
2022-11-02T14:56:53.432Z,22.05
2022-11-02T14:58:58.665Z,20.11
2022-11-02T15:01:04.378Z,20.64
2022-11-02T15:03:15.312Z,14.72
2022-11-02T15:05:25.089Z,19.07
2022-11-02T15:07:36.728Z,19.10
2022-11-02T15:09:54.933Z,16.43
2022-11-02T15:12:02.064Z,17.51
2022-11-02T15:14:48.911Z,14.20
2022-11-02T15:16:52.848Z,16.75
2022-11-02T15:18:57.747Z,17.06
2022-11-02T15:21:28.605Z,17.28
2022-11-02T15:23:38.769Z,17.40
2022-11-02T15:25:42.701Z,17.42
2022-11-02T15:27:46.366Z,17.44
2022-11-02T15:29:50.347Z,17.30
2022-11-02T15:31:56.978Z,14.19
2022-11-02T15:34:02.734Z,16.74
2022-11-02T15:36:08.651Z,16.58
2022-11-02T15:38:18.045Z,16.45
2022-11-02T15:40:28.619Z,16.46
2022-11-02T15:42:39.409Z,16.84
2022-11-02T15:45:20.268Z,18.18
2022-11-02T15:47:42.901Z,18.88
2022-11-02T15:50:07.790Z,19.70
2022-11-02T15:52:22.089Z,20.01
2022-11-02T15:54:45.946Z,20.20
2022-11-02T15:57:04.172Z,19.36
2022-11-02T15:59:37.187Z,18.56
2022-11-02T16:01:41.278Z,17.53
2022-11-02T16:03:46.758Z,16.92
2022-11-02T16:05:51.293Z,16.62
2022-11-02T16:08:10.471Z,15.71
2022-11-02T16:10:22.736Z,15.06
2022-11-02T16:12:32.226Z,15.64
2022-11-02T16:14:35.268Z,14.36
2022-11-02T16:16:48.144Z,14.97
2022-11-02T16:18:52.932Z,14.81
2022-11-02T16:20:57.395Z,14.60
2022-11-02T16:23:02.670Z,13.60
2022-11-02T16:25:11.111Z,14.08
2022-11-02T16:27:14.310Z,14.08
2022-11-02T16:29:28.141Z,14.14
2022-11-02T16:31:31.846Z,13.18
2022-11-02T16:33:39.583Z,13.99
2022-11-02T16:35:42.330Z,13.76
2022-11-02T16:37:45.668Z,13.62
2022-11-02T16:39:48.866Z,13.56
2022-11-02T16:41:55.619Z,13.56
2022-11-02T16:44:01.953Z,13.32
2022-11-02T16:46:07.037Z,13.34
2022-11-02T16:48:18.564Z,11.16
2022-11-02T16:50:22.713Z,10.54
2022-11-02T16:52:30.995Z,13.11
2022-11-02T16:54:41.493Z,12.78
2022-11-02T16:56:49.593Z,10.73
2022-11-02T16:58:59.799Z,12.96
2022-11-02T17:01:05.315Z,12.85
2022-11-02T17:03:11.001Z,12.76
2022-11-02T17:05:18.701Z,12.72
2022-11-02T17:07:24.509Z,10.48
2022-11-02T17:09:30.157Z,10.65
2022-11-02T17:11:34.372Z,12.63
2022-11-02T17:13:44.679Z,12.57
2022-11-02T17:15:50.076Z,12.51
2022-11-02T17:18:25.431Z,12.45
2022-11-02T17:20:28.315Z,12.35
2022-11-02T17:22:31.069Z,12.32
2022-11-02T17:24:36.257Z,12.20
2022-11-02T17:26:39.101Z,10.56
2022-11-02T17:28:47.997Z,12.14
2022-11-02T17:30:52.796Z,12.12
2022-11-02T17:32:55.560Z,2.51
2022-11-02T17:35:00.046Z,12.01
2022-11-02T17:37:02.971Z,8.28
2022-11-02T17:39:05.962Z,11.78
2022-11-02T17:41:31.667Z,11.37
2022-11-02T17:43:34.364Z,11.81
2022-11-02T17:45:38.506Z,11.80
2022-11-02T17:47:41.222Z,11.82
2022-11-02T17:49:43.985Z,11.80
2022-11-02T17:51:48.334Z,11.79
2022-11-02T17:53:51.328Z,11.70
2022-11-02T17:55:56.054Z,11.66
2022-11-02T17:57:59.524Z,11.60
2022-11-02T18:00:02.231Z,11.60
2022-11-02T18:02:16.559Z,5.66
2022-11-02T18:04:19.482Z,11.42
2022-11-02T18:06:22.459Z,11.37
2022-11-02T18:08:26.508Z,11.34
2022-11-02T18:10:32.707Z,11.24
2022-11-02T18:12:35.384Z,11.13
2022-11-02T18:14:38.123Z,9.88
2022-11-02T18:16:40.936Z,9.94
2022-11-02T18:18:43.732Z,11.06
2022-11-02T18:20:46.522Z,8.26
2022-11-02T18:22:49.467Z,11.02
2022-11-02T18:24:53.553Z,11.05
2022-11-02T18:26:56.295Z,10.99
2022-11-02T18:28:59.005Z,10.72
2022-11-02T18:31:01.991Z,10.98
2022-11-02T18:33:06.545Z,10.92
2022-11-02T18:35:14.148Z,10.89
2022-11-02T18:37:16.887Z,10.84
2022-11-02T18:39:19.807Z,10.21
2022-11-02T18:41:30.899Z,9.48
2022-11-02T18:43:33.663Z,10.60
2022-11-02T18:45:36.425Z,5.64
2022-11-02T18:47:39.571Z,10.47
2022-11-02T18:49:42.676Z,8.06
2022-11-02T18:51:47.720Z,10.37
2022-11-02T18:53:58.799Z,7.62
2022-11-02T18:56:03.705Z,10.42
2022-11-02T18:58:08.152Z,10.42
2022-11-02T19:00:12.227Z,9.82
2022-11-02T19:02:15.209Z,9.98
2022-11-02T19:04:18.410Z,10.38
2022-11-02T19:06:39.235Z,5.99
2022-11-02T19:08:59.567Z,5.77
2022-11-02T19:11:02.514Z,10.32
2022-11-02T19:13:05.464Z,10.30
2022-11-02T19:15:10.692Z,10.30
2022-11-02T19:17:14.838Z,8.81
2022-11-02T19:19:17.586Z,10.32
2022-11-02T19:21:20.609Z,10.26
2022-11-02T19:23:23.399Z,10.19
2022-11-02T19:25:26.192Z,10.14
2022-11-02T19:27:29.202Z,10.11
2022-11-02T19:29:33.878Z,10.00
2022-11-02T19:31:37.945Z,9.90
2022-11-02T19:33:40.781Z,2.33
2022-11-02T19:35:43.503Z,9.91
2022-11-02T19:37:46.268Z,8.51
2022-11-02T19:39:49.015Z,8.33
2022-11-02T19:41:52.414Z,8.21
2022-11-02T19:43:55.144Z,9.73
2022-11-02T19:46:01.927Z,4.25
2022-11-02T19:48:06.517Z,8.47
2022-11-02T19:50:09.571Z,8.19
2022-11-02T19:52:12.266Z,6.26
2022-11-02T19:54:15.608Z,3.79
2022-11-02T19:56:19.873Z,8.25
2022-11-02T19:58:22.545Z,8.93
2022-11-02T20:00:25.287Z,9.01
2022-11-02T20:02:28.056Z,7.96
2022-11-02T20:04:38.024Z,9.34
2022-11-02T20:06:44.994Z,7.39
2022-11-02T20:08:50.320Z,6.96
2022-11-02T20:10:53.068Z,9.48
2022-11-02T20:12:55.883Z,9.42
2022-11-02T20:14:58.585Z,9.38
2022-11-02T20:17:25.449Z,9.37
2022-11-02T20:19:23.930Z,9.38
2022-11-02T20:21:33.340Z,9.32
2022-11-02T20:23:40.717Z,9.31
2022-11-02T20:25:43.455Z,8.76
2022-11-02T20:27:46.223Z,9.27
2022-11-02T20:29:48.983Z,9.29
2022-11-02T20:31:51.786Z,8.84
2022-11-02T20:33:54.960Z,9.27
2022-11-02T20:35:57.708Z,9.28
2022-11-02T20:38:02.037Z,9.27
2022-11-02T20:40:05.353Z,9.16
2022-11-02T20:42:09.397Z,7.95
2022-11-02T20:44:12.142Z,9.13
2022-11-02T20:46:37.473Z,9.13
2022-11-02T20:48:39.817Z,3.64
2022-11-02T20:50:45.767Z,8.97
2022-11-02T20:52:48.703Z,8.97
2022-11-02T20:54:52.843Z,8.87
2022-11-02T20:56:55.588Z,7.23
2022-11-02T20:58:58.455Z,3.46
2022-11-02T21:01:01.390Z,8.92
2022-11-02T21:03:04.451Z,6.10
2022-11-02T21:05:07.950Z,6.38
2022-11-02T21:07:10.667Z,8.86
2022-11-02T21:09:13.454Z,2.31
2022-11-02T21:11:35.084Z,8.84
2022-11-02T21:13:52.807Z,8.83
2022-11-02T21:15:55.570Z,5.13
2022-11-02T21:17:58.318Z,8.82
2022-11-02T21:20:28.537Z,8.83
2022-11-02T21:22:24.124Z,5.96
2022-11-02T21:24:26.955Z,8.75
2022-11-02T21:26:31.128Z,8.75
2022-11-02T21:30:43.976Z,8.72
2022-11-02T21:32:46.795Z,5.21
2022-11-02T21:34:49.544Z,8.63
2022-11-02T21:36:52.318Z,8.53
2022-11-02T21:38:55.874Z,5.66
2022-11-02T21:41:00.482Z,7.67
2022-11-02T21:43:04.899Z,6.81
2022-11-02T21:45:09.310Z,8.53
2022-11-02T21:47:13.450Z,8.51
2022-11-02T21:49:16.209Z,4.74
2022-11-02T21:51:20.609Z,8.50
2022-11-02T21:53:23.389Z,8.41
2022-11-02T21:55:26.153Z,8.39
2022-11-02T21:57:28.939Z,8.37
2022-11-02T21:59:33.057Z,7.28
2022-11-02T22:01:48.366Z,8.34
2022-11-02T22:03:53.212Z,6.35
2022-11-02T22:05:55.965Z,3.18
2022-11-02T22:08:16.294Z,7.36
2022-11-02T22:10:19.130Z,8.23
2022-11-02T22:12:39.585Z,3.85
2022-11-02T22:14:45.150Z,7.92
2022-11-02T22:16:47.985Z,8.06
2022-11-02T22:18:51.093Z,8.17
2022-11-02T22:20:56.798Z,6.75
2022-11-02T22:22:59.562Z,8.22
2022-11-02T22:25:02.431Z,5.98
2022-11-02T22:27:05.646Z,8.23
2022-11-02T22:29:09.404Z,8.18
2022-11-02T22:31:15.489Z,8.13
2022-11-02T22:33:18.242Z,8.11
2022-11-02T22:35:21.071Z,8.16
2022-11-02T22:37:41.738Z,6.40
2022-11-02T22:39:44.580Z,8.19
2022-11-02T22:41:48.371Z,8.16
2022-11-02T22:43:53.136Z,7.66
2022-11-02T22:46:02.615Z,8.07
2022-11-02T22:48:06.885Z,8.12
2022-11-02T22:50:10.138Z,3.01
2022-11-02T22:52:12.903Z,5.94
2022-11-02T22:54:17.870Z,8.11
2022-11-02T22:56:22.318Z,8.12
2022-11-02T22:58:24.116Z,7.37
2022-11-02T23:00:26.853Z,8.05
2022-11-02T23:02:29.633Z,8.01
2022-11-02T23:04:33.828Z,8.01
2022-11-02T23:06:36.650Z,-1.24
2022-11-02T23:08:40.942Z,7.88
2022-11-02T23:11:01.406Z,7.89
2022-11-02T23:13:04.646Z,7.88
2022-11-02T23:15:07.964Z,7.97
2022-11-02T23:17:10.708Z,7.97
2022-11-02T23:19:30.504Z,5.13
2022-11-02T23:21:35.586Z,3.69
2022-11-02T23:23:55.899Z,7.68
2022-11-02T23:25:58.891Z,7.55
2022-11-02T23:28:19.023Z,7.04
2022-11-02T23:30:39.848Z,4.94
2022-11-02T23:32:42.664Z,2.95
2022-11-02T23:34:59.307Z,2.89
2022-11-02T23:37:06.430Z,5.03
2022-11-02T23:39:27.188Z,7.46
2022-11-02T23:41:30.715Z,6.77
2022-11-02T23:43:33.416Z,7.60
2022-11-02T23:45:36.252Z,7.63
2022-11-02T23:47:56.792Z,4.97
2022-11-02T23:49:59.589Z,7.45
2022-11-02T23:52:21.429Z,5.14
2022-11-02T23:54:41.775Z,3.37
2022-11-02T23:56:44.721Z,7.20
2022-11-02T23:58:47.842Z,7.54
